sensor_id;sensor_type;location;lat;lon;timestamp;P1;durP1;ratioP1;P2;durP2;ratioP2
40256;SDS011;25977;45.462;9.210;2022-09-14T00:00:59;1.73;;;0.93;;
40256;SDS011;25977;45.462;9.210;2022-09-14T00:03:25;1.50;;;0.98;;
40256;SDS011;25977;45.462;9.210;2022-09-14T00:05:51;4.47;;;1.02;;
40256;SDS011;25977;45.462;9.210;2022-09-14T00:08:17;1.25;;;1.00;;
40256;SDS011;25977;45.462;9.210;2022-09-14T00:10:43;4.63;;;1.15;;
40256;SDS011;25977;45.462;9.210;2022-09-14T00:13:10;2.35;;;1.38;;
40256;SDS011;25977;45.462;9.210;2022-09-14T00:15:38;2.25;;;1.25;;
40256;SDS011;25977;45.462;9.210;2022-09-14T00:18:05;6.88;;;1.40;;
40256;SDS011;25977;45.462;9.210;2022-09-14T00:20:33;1.48;;;0.90;;
40256;SDS011;25977;45.462;9.210;2022-09-14T00:23:00;1.42;;;0.85;;
40256;SDS011;25977;45.462;9.210;2022-09-14T00:25:26;2.83;;;0.93;;
40256;SDS011;25977;45.462;9.210;2022-09-14T00:27:55;4.03;;;1.05;;
40256;SDS011;25977;45.462;9.210;2022-09-14T00:30:22;2.92;;;1.10;;
40256;SDS011;25977;45.462;9.210;2022-09-14T00:32:49;7.18;;;2.03;;
40256;SDS011;25977;45.462;9.210;2022-09-14T00:35:16;1.27;;;0.98;;
40256;SDS011;25977;45.462;9.210;2022-09-14T00:37:42;3.92;;;0.95;;
40256;SDS011;25977;45.462;9.210;2022-09-14T00:40:08;2.83;;;0.90;;
40256;SDS011;25977;45.462;9.210;2022-09-14T00:42:35;0.70;;;0.68;;
40256;SDS011;25977;45.462;9.210;2022-09-14T00:45:06;7.75;;;0.90;;
40256;SDS011;25977;45.462;9.210;2022-09-14T00:47:44;1.90;;;0.70;;
40256;SDS011;25977;45.462;9.210;2022-09-14T00:50:13;1.95;;;0.70;;
40256;SDS011;25977;45.462;9.210;2022-09-14T00:52:41;1.38;;;0.80;;
40256;SDS011;25977;45.462;9.210;2022-09-14T00:55:12;1.00;;;0.67;;
40256;SDS011;25977;45.462;9.210;2022-09-14T00:57:42;1.77;;;0.70;;
40256;SDS011;25977;45.462;9.210;2022-09-14T01:00:12;1.20;;;0.95;;
40256;SDS011;25977;45.462;9.210;2022-09-14T01:02:39;1.17;;;0.93;;
40256;SDS011;25977;45.462;9.210;2022-09-14T01:05:06;1.10;;;1.00;;
40256;SDS011;25977;45.462;9.210;2022-09-14T01:07:39;2.05;;;0.60;;
40256;SDS011;25977;45.462;9.210;2022-09-14T01:16:01;1.48;;;0.93;;
40256;SDS011;25977;45.462;9.210;2022-09-14T01:18:37;3.08;;;1.77;;
40256;SDS011;25977;45.462;9.210;2022-09-14T01:21:10;0.95;;;0.70;;
40256;SDS011;25977;45.462;9.210;2022-09-14T01:29:32;3.03;;;1.30;;
40256;SDS011;25977;45.462;9.210;2022-09-14T01:32:07;3.80;;;1.60;;
40256;SDS011;25977;45.462;9.210;2022-09-14T01:34:48;2.25;;;1.33;;
40256;SDS011;25977;45.462;9.210;2022-09-14T01:37:44;2.72;;;1.00;;
40256;SDS011;25977;45.462;9.210;2022-09-14T01:42:56;2.63;;;1.02;;
40256;SDS011;25977;45.462;9.210;2022-09-14T01:45:27;1.77;;;0.95;;
40256;SDS011;25977;45.462;9.210;2022-09-14T01:48:05;3.28;;;1.05;;
40256;SDS011;25977;45.462;9.210;2022-09-14T01:50:39;1.13;;;0.82;;
40256;SDS011;25977;45.462;9.210;2022-09-14T01:53:12;2.30;;;0.90;;
40256;SDS011;25977;45.462;9.210;2022-09-14T02:00:56;1.20;;;0.60;;
40256;SDS011;25977;45.462;9.210;2022-09-14T02:03:28;1.35;;;1.08;;
40256;SDS011;25977;45.462;9.210;2022-09-14T02:06:06;2.15;;;1.10;;
40256;SDS011;25977;45.462;9.210;2022-09-14T02:08:38;1.10;;;1.00;;
40256;SDS011;25977;45.462;9.210;2022-09-14T02:11:05;3.20;;;1.58;;
40256;SDS011;25977;45.462;9.210;2022-09-14T02:13:31;3.45;;;0.90;;
40256;SDS011;25977;45.462;9.210;2022-09-14T02:15:57;2.70;;;1.10;;
40256;SDS011;25977;45.462;9.210;2022-09-14T02:18:23;1.70;;;0.98;;
40256;SDS011;25977;45.462;9.210;2022-09-14T02:20:59;1.05;;;0.90;;
40256;SDS011;25977;45.462;9.210;2022-09-14T02:23:28;3.72;;;1.10;;
40256;SDS011;25977;45.462;9.210;2022-09-14T02:25:54;1.40;;;0.70;;
40256;SDS011;25977;45.462;9.210;2022-09-14T02:28:20;0.80;;;0.70;;
40256;SDS011;25977;45.462;9.210;2022-09-14T02:36:27;2.70;;;1.00;;
40256;SDS011;25977;45.462;9.210;2022-09-14T02:39:02;3.50;;;1.27;;
40256;SDS011;25977;45.462;9.210;2022-09-14T02:41:35;1.80;;;0.95;;
40256;SDS011;25977;45.462;9.210;2022-09-14T02:44:36;0.98;;;0.80;;
40256;SDS011;25977;45.462;9.210;2022-09-14T02:47:27;1.17;;;0.90;;
40256;SDS011;25977;45.462;9.210;2022-09-14T02:52:58;2.92;;;0.82;;
40256;SDS011;25977;45.462;9.210;2022-09-14T02:55:26;1.52;;;1.15;;
40256;SDS011;25977;45.462;9.210;2022-09-14T02:58:06;2.50;;;1.02;;
40256;SDS011;25977;45.462;9.210;2022-09-14T03:00:44;2.08;;;0.90;;
40256;SDS011;25977;45.462;9.210;2022-09-14T03:03:12;1.35;;;0.85;;
40256;SDS011;25977;45.462;9.210;2022-09-14T03:05:39;4.22;;;1.45;;
40256;SDS011;25977;45.462;9.210;2022-09-14T03:08:05;4.10;;;1.10;;
40256;SDS011;25977;45.462;9.210;2022-09-14T03:10:32;2.65;;;1.33;;
40256;SDS011;25977;45.462;9.210;2022-09-14T03:12:58;2.53;;;0.57;;
40256;SDS011;25977;45.462;9.210;2022-09-14T03:15:24;14.80;;;1.20;;
40256;SDS011;25977;45.462;9.210;2022-09-14T03:17:51;0.88;;;0.63;;
40256;SDS011;25977;45.462;9.210;2022-09-14T03:20:18;3.08;;;1.58;;
40256;SDS011;25977;45.462;9.210;2022-09-14T03:22:46;6.35;;;1.20;;
40256;SDS011;25977;45.462;9.210;2022-09-14T03:25:12;1.60;;;1.13;;
40256;SDS011;25977;45.462;9.210;2022-09-14T03:27:38;1.67;;;0.90;;
40256;SDS011;25977;45.462;9.210;2022-09-14T03:30:05;0.70;;;0.70;;
40256;SDS011;25977;45.462;9.210;2022-09-14T03:32:32;2.42;;;1.10;;
40256;SDS011;25977;45.462;9.210;2022-09-14T03:34:58;2.80;;;1.10;;
40256;SDS011;25977;45.462;9.210;2022-09-14T03:37:24;4.20;;;0.90;;
40256;SDS011;25977;45.462;9.210;2022-09-14T03:39:50;2.08;;;0.88;;
40256;SDS011;25977;45.462;9.210;2022-09-14T03:42:16;2.60;;;1.20;;
40256;SDS011;25977;45.462;9.210;2022-09-14T03:44:42;2.15;;;0.80;;
40256;SDS011;25977;45.462;9.210;2022-09-14T03:47:08;2.50;;;1.05;;
40256;SDS011;25977;45.462;9.210;2022-09-14T03:49:34;1.35;;;0.93;;
40256;SDS011;25977;45.462;9.210;2022-09-14T03:51:59;0.90;;;0.88;;
40256;SDS011;25977;45.462;9.210;2022-09-14T03:54:25;6.18;;;1.27;;
40256;SDS011;25977;45.462;9.210;2022-09-14T03:56:52;2.38;;;1.17;;
40256;SDS011;25977;45.462;9.210;2022-09-14T03:59:18;2.00;;;1.05;;
40256;SDS011;25977;45.462;9.210;2022-09-14T04:01:44;2.92;;;1.02;;
40256;SDS011;25977;45.462;9.210;2022-09-14T04:04:10;0.73;;;0.73;;
40256;SDS011;25977;45.462;9.210;2022-09-14T04:06:36;3.53;;;1.38;;
40256;SDS011;25977;45.462;9.210;2022-09-14T04:09:02;1.42;;;0.93;;
40256;SDS011;25977;45.462;9.210;2022-09-14T04:11:28;1.20;;;1.10;;
40256;SDS011;25977;45.462;9.210;2022-09-14T04:13:58;3.35;;;0.98;;
40256;SDS011;25977;45.462;9.210;2022-09-14T04:16:28;1.65;;;1.00;;
40256;SDS011;25977;45.462;9.210;2022-09-14T04:18:54;1.25;;;1.15;;
40256;SDS011;25977;45.462;9.210;2022-09-14T04:21:21;2.15;;;1.15;;
40256;SDS011;25977;45.462;9.210;2022-09-14T04:23:52;1.75;;;0.80;;
40256;SDS011;25977;45.462;9.210;2022-09-14T04:26:19;8.85;;;0.95;;
40256;SDS011;25977;45.462;9.210;2022-09-14T04:28:46;3.05;;;0.80;;
40256;SDS011;25977;45.462;9.210;2022-09-14T04:31:12;2.13;;;1.00;;
40256;SDS011;25977;45.462;9.210;2022-09-14T04:33:39;1.63;;;0.80;;
40256;SDS011;25977;45.462;9.210;2022-09-14T04:36:08;1.27;;;1.10;;
40256;SDS011;25977;45.462;9.210;2022-09-14T04:38:35;3.83;;;2.08;;
40256;SDS011;25977;45.462;9.210;2022-09-14T04:41:09;2.50;;;1.35;;
40256;SDS011;25977;45.462;9.210;2022-09-14T04:43:43;2.22;;;1.33;;
40256;SDS011;25977;45.462;9.210;2022-09-14T04:46:13;3.15;;;0.90;;
40256;SDS011;25977;45.462;9.210;2022-09-14T04:48:40;1.65;;;0.98;;
40256;SDS011;25977;45.462;9.210;2022-09-14T04:51:10;4.75;;;1.35;;
40256;SDS011;25977;45.462;9.210;2022-09-14T04:53:41;3.30;;;1.52;;
40256;SDS011;25977;45.462;9.210;2022-09-14T04:56:09;4.63;;;0.98;;
40256;SDS011;25977;45.462;9.210;2022-09-14T04:58:36;7.20;;;1.50;;
40256;SDS011;25977;45.462;9.210;2022-09-14T05:01:06;11.75;;;3.03;;
40256;SDS011;25977;45.462;9.210;2022-09-14T05:03:34;11.48;;;2.75;;
40256;SDS011;25977;45.462;9.210;2022-09-14T05:06:07;4.53;;;1.10;;
40256;SDS011;25977;45.462;9.210;2022-09-14T05:08:33;1.33;;;0.80;;
40256;SDS011;25977;45.462;9.210;2022-09-14T05:11:00;3.47;;;1.05;;
40256;SDS011;25977;45.462;9.210;2022-09-14T05:13:26;3.85;;;1.30;;
40256;SDS011;25977;45.462;9.210;2022-09-14T05:15:52;7.78;;;1.27;;
40256;SDS011;25977;45.462;9.210;2022-09-14T05:18:18;6.68;;;0.65;;
40256;SDS011;25977;45.462;9.210;2022-09-14T05:20:44;3.15;;;1.73;;
40256;SDS011;25977;45.462;9.210;2022-09-14T05:23:10;1.58;;;0.95;;
40256;SDS011;25977;45.462;9.210;2022-09-14T05:25:35;1.90;;;1.10;;
40256;SDS011;25977;45.462;9.210;2022-09-14T05:28:01;4.68;;;1.80;;
40256;SDS011;25977;45.462;9.210;2022-09-14T05:30:28;10.02;;;1.35;;
40256;SDS011;25977;45.462;9.210;2022-09-14T05:32:53;3.17;;;1.23;;
40256;SDS011;25977;45.462;9.210;2022-09-14T05:35:19;3.60;;;1.20;;
40256;SDS011;25977;45.462;9.210;2022-09-14T05:37:45;6.25;;;2.88;;
40256;SDS011;25977;45.462;9.210;2022-09-14T05:40:10;3.58;;;1.45;;
40256;SDS011;25977;45.462;9.210;2022-09-14T05:42:36;2.35;;;1.83;;
40256;SDS011;25977;45.462;9.210;2022-09-14T05:45:02;10.15;;;1.92;;
40256;SDS011;25977;45.462;9.210;2022-09-14T05:47:28;3.20;;;1.20;;
40256;SDS011;25977;45.462;9.210;2022-09-14T05:49:55;5.10;;;1.70;;
40256;SDS011;25977;45.462;9.210;2022-09-14T05:52:21;2.88;;;1.60;;
40256;SDS011;25977;45.462;9.210;2022-09-14T05:54:47;4.57;;;1.27;;
40256;SDS011;25977;45.462;9.210;2022-09-14T05:57:12;2.22;;;1.25;;
40256;SDS011;25977;45.462;9.210;2022-09-14T05:59:38;3.72;;;1.90;;
40256;SDS011;25977;45.462;9.210;2022-09-14T06:02:04;2.20;;;1.83;;
40256;SDS011;25977;45.462;9.210;2022-09-14T06:04:30;2.47;;;1.73;;
40256;SDS011;25977;45.462;9.210;2022-09-14T06:06:56;1.55;;;1.23;;
40256;SDS011;25977;45.462;9.210;2022-09-14T06:09:21;3.22;;;1.67;;
40256;SDS011;25977;45.462;9.210;2022-09-14T06:11:47;1.25;;;1.15;;
40256;SDS011;25977;45.462;9.210;2022-09-14T06:14:13;2.70;;;2.17;;
40256;SDS011;25977;45.462;9.210;2022-09-14T06:16:43;2.75;;;1.40;;
40256;SDS011;25977;45.462;9.210;2022-09-14T06:19:09;4.85;;;1.50;;
40256;SDS011;25977;45.462;9.210;2022-09-14T06:21:36;1.52;;;1.25;;
40256;SDS011;25977;45.462;9.210;2022-09-14T06:24:02;7.38;;;1.45;;
40256;SDS011;25977;45.462;9.210;2022-09-14T06:26:28;4.30;;;1.80;;
40256;SDS011;25977;45.462;9.210;2022-09-14T06:28:55;4.03;;;1.60;;
40256;SDS011;25977;45.462;9.210;2022-09-14T06:31:20;2.30;;;1.50;;
40256;SDS011;25977;45.462;9.210;2022-09-14T06:33:47;3.22;;;1.67;;
40256;SDS011;25977;45.462;9.210;2022-09-14T06:36:15;5.43;;;1.25;;
40256;SDS011;25977;45.462;9.210;2022-09-14T06:38:43;6.03;;;1.80;;
40256;SDS011;25977;45.462;9.210;2022-09-14T06:41:11;6.03;;;1.95;;
40256;SDS011;25977;45.462;9.210;2022-09-14T06:43:38;5.95;;;1.85;;
40256;SDS011;25977;45.462;9.210;2022-09-14T06:46:10;2.47;;;1.70;;
40256;SDS011;25977;45.462;9.210;2022-09-14T06:48:40;4.40;;;1.85;;
40256;SDS011;25977;45.462;9.210;2022-09-14T06:51:28;4.32;;;1.42;;
40256;SDS011;25977;45.462;9.210;2022-09-14T06:53:56;3.20;;;1.30;;
40256;SDS011;25977;45.462;9.210;2022-09-14T06:56:26;4.22;;;2.40;;
40256;SDS011;25977;45.462;9.210;2022-09-14T06:58:53;6.80;;;2.53;;
40256;SDS011;25977;45.462;9.210;2022-09-14T07:01:19;4.82;;;1.58;;
40256;SDS011;25977;45.462;9.210;2022-09-14T07:03:46;4.03;;;1.73;;
40256;SDS011;25977;45.462;9.210;2022-09-14T07:06:15;3.53;;;1.83;;
40256;SDS011;25977;45.462;9.210;2022-09-14T07:08:43;5.13;;;1.70;;
40256;SDS011;25977;45.462;9.210;2022-09-14T07:11:09;10.25;;;2.15;;
40256;SDS011;25977;45.462;9.210;2022-09-14T07:13:36;4.47;;;2.22;;
40256;SDS011;25977;45.462;9.210;2022-09-14T07:16:02;5.43;;;2.15;;
40256;SDS011;25977;45.462;9.210;2022-09-14T07:18:29;5.75;;;1.90;;
40256;SDS011;25977;45.462;9.210;2022-09-14T07:21:05;5.93;;;1.30;;
40256;SDS011;25977;45.462;9.210;2022-09-14T07:23:34;4.05;;;1.80;;
40256;SDS011;25977;45.462;9.210;2022-09-14T07:26:03;9.40;;;1.98;;
40256;SDS011;25977;45.462;9.210;2022-09-14T07:28:41;7.03;;;2.42;;
40256;SDS011;25977;45.462;9.210;2022-09-14T07:31:18;2.38;;;1.60;;
40256;SDS011;25977;45.462;9.210;2022-09-14T07:33:46;4.53;;;1.48;;
40256;SDS011;25977;45.462;9.210;2022-09-14T07:36:12;5.60;;;1.35;;
40256;SDS011;25977;45.462;9.210;2022-09-14T07:38:39;4.50;;;1.77;;
40256;SDS011;25977;45.462;9.210;2022-09-14T07:41:05;4.80;;;1.80;;
40256;SDS011;25977;45.462;9.210;2022-09-14T07:43:31;5.00;;;1.83;;
40256;SDS011;25977;45.462;9.210;2022-09-14T07:45:56;5.72;;;2.03;;
40256;SDS011;25977;45.462;9.210;2022-09-14T07:48:26;1.63;;;1.52;;
40256;SDS011;25977;45.462;9.210;2022-09-14T07:50:58;3.88;;;1.40;;
40256;SDS011;25977;45.462;9.210;2022-09-14T07:53:28;3.55;;;1.80;;
40256;SDS011;25977;45.462;9.210;2022-09-14T07:55:57;2.45;;;1.90;;
40256;SDS011;25977;45.462;9.210;2022-09-14T07:58:24;3.70;;;1.80;;
40256;SDS011;25977;45.462;9.210;2022-09-14T08:00:51;4.63;;;1.80;;
40256;SDS011;25977;45.462;9.210;2022-09-14T08:03:21;4.22;;;1.48;;
40256;SDS011;25977;45.462;9.210;2022-09-14T08:05:47;10.57;;;1.60;;
40256;SDS011;25977;45.462;9.210;2022-09-14T08:08:13;4.00;;;2.58;;
40256;SDS011;25977;45.462;9.210;2022-09-14T08:10:39;5.15;;;1.95;;
40256;SDS011;25977;45.462;9.210;2022-09-14T08:13:04;4.35;;;1.35;;
40256;SDS011;25977;45.462;9.210;2022-09-14T08:15:30;9.30;;;2.03;;
40256;SDS011;25977;45.462;9.210;2022-09-14T08:17:56;2.28;;;2.08;;
40256;SDS011;25977;45.462;9.210;2022-09-14T08:20:21;4.88;;;1.70;;
40256;SDS011;25977;45.462;9.210;2022-09-14T08:22:47;9.35;;;2.28;;
40256;SDS011;25977;45.462;9.210;2022-09-14T08:25:13;11.88;;;2.15;;
40256;SDS011;25977;45.462;9.210;2022-09-14T08:27:38;4.22;;;1.70;;
40256;SDS011;25977;45.462;9.210;2022-09-14T08:30:04;3.35;;;1.83;;
40256;SDS011;25977;45.462;9.210;2022-09-14T08:32:30;15.00;;;2.15;;
40256;SDS011;25977;45.462;9.210;2022-09-14T08:34:56;2.70;;;1.40;;
40256;SDS011;25977;45.462;9.210;2022-09-14T08:37:22;8.07;;;1.70;;
40256;SDS011;25977;45.462;9.210;2022-09-14T08:39:48;2.50;;;1.60;;
40256;SDS011;25977;45.462;9.210;2022-09-14T08:42:15;5.03;;;1.48;;
40256;SDS011;25977;45.462;9.210;2022-09-14T08:44:48;6.65;;;2.00;;
40256;SDS011;25977;45.462;9.210;2022-09-14T08:47:24;5.18;;;1.77;;
40256;SDS011;25977;45.462;9.210;2022-09-14T08:52:45;9.05;;;1.55;;
40256;SDS011;25977;45.462;9.210;2022-09-14T08:58:05;6.30;;;1.80;;
40256;SDS011;25977;45.462;9.210;2022-09-14T09:05:40;5.22;;;1.40;;
40256;SDS011;25977;45.462;9.210;2022-09-14T09:10:58;9.20;;;3.50;;
40256;SDS011;25977;45.462;9.210;2022-09-14T09:13:28;6.38;;;2.90;;
40256;SDS011;25977;45.462;9.210;2022-09-14T09:15:58;6.65;;;1.90;;
40256;SDS011;25977;45.462;9.210;2022-09-14T09:21:15;8.70;;;2.20;;
40256;SDS011;25977;45.462;9.210;2022-09-14T09:23:49;8.60;;;2.83;;
40256;SDS011;25977;45.462;9.210;2022-09-14T09:28:59;10.45;;;2.17;;
40256;SDS011;25977;45.462;9.210;2022-09-14T09:31:30;2.85;;;1.42;;
40256;SDS011;25977;45.462;9.210;2022-09-14T09:34:24;4.90;;;1.85;;
40256;SDS011;25977;45.462;9.210;2022-09-14T09:36:52;8.07;;;1.80;;
40256;SDS011;25977;45.462;9.210;2022-09-14T09:39:20;11.95;;;1.88;;
40256;SDS011;25977;45.462;9.210;2022-09-14T09:42:05;7.15;;;2.22;;
40256;SDS011;25977;45.462;9.210;2022-09-14T09:44:52;6.57;;;1.80;;
40256;SDS011;25977;45.462;9.210;2022-09-14T09:50:04;3.28;;;2.38;;
40256;SDS011;25977;45.462;9.210;2022-09-14T09:52:48;2.85;;;1.80;;
40256;SDS011;25977;45.462;9.210;2022-09-14T09:55:23;5.72;;;1.38;;
40256;SDS011;25977;45.462;9.210;2022-09-14T09:57:52;4.95;;;1.83;;
40256;SDS011;25977;45.462;9.210;2022-09-14T10:02:49;4.32;;;1.92;;
40256;SDS011;25977;45.462;9.210;2022-09-14T10:05:22;3.30;;;1.42;;
40256;SDS011;25977;45.462;9.210;2022-09-14T10:08:03;6.40;;;1.52;;
40256;SDS011;25977;45.462;9.210;2022-09-14T10:13:00;8.73;;;2.42;;
40256;SDS011;25977;45.462;9.210;2022-09-14T10:15:29;2.85;;;1.67;;
40256;SDS011;25977;45.462;9.210;2022-09-14T10:20:38;2.58;;;2.10;;
40256;SDS011;25977;45.462;9.210;2022-09-14T10:23:13;3.03;;;1.48;;
40256;SDS011;25977;45.462;9.210;2022-09-14T10:25:43;4.88;;;1.63;;
40256;SDS011;25977;45.462;9.210;2022-09-14T10:33:36;3.23;;;1.57;;
40256;SDS011;25977;45.462;9.210;2022-09-14T10:49:45;5.63;;;1.60;;
40256;SDS011;25977;45.462;9.210;2022-09-14T10:55:37;6.82;;;2.33;;
40256;SDS011;25977;45.462;9.210;2022-09-14T11:03:53;13.75;;;2.72;;
40256;SDS011;25977;45.462;9.210;2022-09-14T11:09:04;3.20;;;1.67;;
40256;SDS011;25977;45.462;9.210;2022-09-14T11:25:59;2.28;;;1.50;;
40256;SDS011;25977;45.462;9.210;2022-09-14T11:34:17;3.03;;;1.42;;
40256;SDS011;25977;45.462;9.210;2022-09-14T11:36:56;3.78;;;1.88;;
40256;SDS011;25977;45.462;9.210;2022-09-14T11:39:28;8.27;;;2.37;;
40256;SDS011;25977;45.462;9.210;2022-09-14T11:42:13;13.45;;;1.45;;
40256;SDS011;25977;45.462;9.210;2022-09-14T11:44:53;4.97;;;2.33;;
40256;SDS011;25977;45.462;9.210;2022-09-14T11:47:27;6.75;;;2.05;;
40256;SDS011;25977;45.462;9.210;2022-09-14T11:52:25;2.58;;;1.20;;
40256;SDS011;25977;45.462;9.210;2022-09-14T11:54:52;5.03;;;1.58;;
40256;SDS011;25977;45.462;9.210;2022-09-14T11:57:22;4.65;;;1.98;;
40256;SDS011;25977;45.462;9.210;2022-09-14T11:59:51;2.15;;;1.85;;
40256;SDS011;25977;45.462;9.210;2022-09-14T12:12:44;2.92;;;1.25;;
40256;SDS011;25977;45.462;9.210;2022-09-14T12:18:35;2.80;;;1.35;;
40256;SDS011;25977;45.462;9.210;2022-09-14T12:25:55;7.15;;;0.90;;
40256;SDS011;25977;45.462;9.210;2022-09-14T12:53:51;2.40;;;1.23;;
40256;SDS011;25977;45.462;9.210;2022-09-14T13:01:46;3.90;;;1.73;;
40256;SDS011;25977;45.462;9.210;2022-09-14T13:04:25;4.63;;;1.65;;
40256;SDS011;25977;45.462;9.210;2022-09-14T13:06:51;7.53;;;1.58;;
40256;SDS011;25977;45.462;9.210;2022-09-14T13:09:21;3.22;;;1.23;;
40256;SDS011;25977;45.462;9.210;2022-09-14T13:11:59;5.93;;;1.42;;
40256;SDS011;25977;45.462;9.210;2022-09-14T13:14:28;8.45;;;1.17;;
40256;SDS011;25977;45.462;9.210;2022-09-14T13:16:57;2.35;;;0.98;;
40256;SDS011;25977;45.462;9.210;2022-09-14T13:19:26;1.73;;;1.13;;
40256;SDS011;25977;45.462;9.210;2022-09-14T13:21:54;1.45;;;1.05;;
40256;SDS011;25977;45.462;9.210;2022-09-14T13:24:34;14.93;;;1.67;;
40256;SDS011;25977;45.462;9.210;2022-09-14T13:27:06;3.47;;;1.15;;
40256;SDS011;25977;45.462;9.210;2022-09-14T13:32:29;2.83;;;1.00;;
40256;SDS011;25977;45.462;9.210;2022-09-14T13:34:56;1.60;;;1.10;;
40256;SDS011;25977;45.462;9.210;2022-09-14T13:37:22;4.95;;;1.55;;
40256;SDS011;25977;45.462;9.210;2022-09-14T13:39:53;9.52;;;1.45;;
40256;SDS011;25977;45.462;9.210;2022-09-14T13:42:20;3.30;;;0.68;;
40256;SDS011;25977;45.462;9.210;2022-09-14T13:44:47;3.08;;;1.13;;
40256;SDS011;25977;45.462;9.210;2022-09-14T13:47:15;3.83;;;1.15;;
40256;SDS011;25977;45.462;9.210;2022-09-14T13:49:43;1.13;;;0.88;;
40256;SDS011;25977;45.462;9.210;2022-09-14T13:55:22;0.98;;;0.82;;
40256;SDS011;25977;45.462;9.210;2022-09-14T13:58:03;2.30;;;0.90;;
40256;SDS011;25977;45.462;9.210;2022-09-14T14:00:56;1.83;;;0.77;;
40256;SDS011;25977;45.462;9.210;2022-09-14T14:03:26;2.97;;;1.00;;
40256;SDS011;25977;45.462;9.210;2022-09-14T14:05:54;1.55;;;0.93;;
40256;SDS011;25977;45.462;9.210;2022-09-14T14:11:23;3.25;;;1.02;;
40256;SDS011;25977;45.462;9.210;2022-09-14T14:13:52;8.10;;;1.38;;
40256;SDS011;25977;45.462;9.210;2022-09-14T14:16:22;1.05;;;0.77;;
40256;SDS011;25977;45.462;9.210;2022-09-14T14:18:54;5.85;;;1.30;;
40256;SDS011;25977;45.462;9.210;2022-09-14T14:23:47;4.15;;;1.20;;
40256;SDS011;25977;45.462;9.210;2022-09-14T14:26:19;3.70;;;1.63;;
40256;SDS011;25977;45.462;9.210;2022-09-14T14:28:49;4.95;;;1.00;;
40256;SDS011;25977;45.462;9.210;2022-09-14T14:31:17;8.75;;;1.65;;
40256;SDS011;25977;45.462;9.210;2022-09-14T14:33:48;5.97;;;1.10;;
40256;SDS011;25977;45.462;9.210;2022-09-14T14:36:15;1.57;;;0.90;;
40256;SDS011;25977;45.462;9.210;2022-09-14T14:38:43;1.67;;;1.08;;
40256;SDS011;25977;45.462;9.210;2022-09-14T14:41:14;2.22;;;0.98;;
40256;SDS011;25977;45.462;9.210;2022-09-14T14:43:42;1.85;;;1.00;;
40256;SDS011;25977;45.462;9.210;2022-09-14T14:46:14;3.28;;;1.55;;
40256;SDS011;25977;45.462;9.210;2022-09-14T14:48:40;8.82;;;2.13;;
40256;SDS011;25977;45.462;9.210;2022-09-14T14:51:08;0.73;;;0.73;;
40256;SDS011;25977;45.462;9.210;2022-09-14T14:53:38;1.95;;;0.90;;
40256;SDS011;25977;45.462;9.210;2022-09-14T14:56:04;8.20;;;1.00;;
40256;SDS011;25977;45.462;9.210;2022-09-14T14:58:30;8.10;;;1.67;;
40256;SDS011;25977;45.462;9.210;2022-09-14T15:00:56;4.82;;;1.90;;
40256;SDS011;25977;45.462;9.210;2022-09-14T15:03:21;8.10;;;1.92;;
40256;SDS011;25977;45.462;9.210;2022-09-14T15:05:47;5.70;;;1.85;;
40256;SDS011;25977;45.462;9.210;2022-09-14T15:08:15;1.52;;;1.40;;
40256;SDS011;25977;45.462;9.210;2022-09-14T15:10:43;3.88;;;1.30;;
40256;SDS011;25977;45.462;9.210;2022-09-14T15:13:10;6.07;;;1.75;;
40256;SDS011;25977;45.462;9.210;2022-09-14T15:15:38;4.00;;;1.10;;
40256;SDS011;25977;45.462;9.210;2022-09-14T15:18:05;3.05;;;1.13;;
40256;SDS011;25977;45.462;9.210;2022-09-14T15:20:31;4.90;;;1.25;;
40256;SDS011;25977;45.462;9.210;2022-09-14T15:22:57;5.60;;;1.30;;
40256;SDS011;25977;45.462;9.210;2022-09-14T15:25:22;3.03;;;1.08;;
40256;SDS011;25977;45.462;9.210;2022-09-14T15:27:48;2.85;;;2.17;;
40256;SDS011;25977;45.462;9.210;2022-09-14T15:30:14;3.13;;;0.90;;
40256;SDS011;25977;45.462;9.210;2022-09-14T15:32:40;1.08;;;0.90;;
40256;SDS011;25977;45.462;9.210;2022-09-14T15:35:06;3.60;;;0.90;;
40256;SDS011;25977;45.462;9.210;2022-09-14T15:37:34;5.35;;;1.30;;
40256;SDS011;25977;45.462;9.210;2022-09-14T15:40:00;5.07;;;1.45;;
40256;SDS011;25977;45.462;9.210;2022-09-14T15:42:27;32.53;;;4.32;;
40256;SDS011;25977;45.462;9.210;2022-09-14T15:44:52;2.42;;;0.98;;
40256;SDS011;25977;45.462;9.210;2022-09-14T15:47:18;6.43;;;1.52;;
40256;SDS011;25977;45.462;9.210;2022-09-14T15:49:44;9.85;;;1.88;;
40256;SDS011;25977;45.462;9.210;2022-09-14T15:52:10;3.42;;;1.42;;
40256;SDS011;25977;45.462;9.210;2022-09-14T15:54:36;3.95;;;0.93;;
40256;SDS011;25977;45.462;9.210;2022-09-14T15:57:03;5.15;;;1.73;;
40256;SDS011;25977;45.462;9.210;2022-09-14T15:59:32;3.25;;;1.20;;
40256;SDS011;25977;45.462;9.210;2022-09-14T16:01:58;2.88;;;0.98;;
40256;SDS011;25977;45.462;9.210;2022-09-14T16:04:24;5.53;;;1.17;;
40256;SDS011;25977;45.462;9.210;2022-09-14T16:06:50;3.40;;;1.23;;
40256;SDS011;25977;45.462;9.210;2022-09-14T16:09:17;3.53;;;1.58;;
40256;SDS011;25977;45.462;9.210;2022-09-14T16:11:45;1.80;;;1.52;;
40256;SDS011;25977;45.462;9.210;2022-09-14T16:14:11;4.07;;;2.08;;
40256;SDS011;25977;45.462;9.210;2022-09-14T16:16:37;3.85;;;1.40;;
40256;SDS011;25977;45.462;9.210;2022-09-14T16:19:07;5.40;;;1.10;;
40256;SDS011;25977;45.462;9.210;2022-09-14T16:21:35;7.85;;;1.48;;
40256;SDS011;25977;45.462;9.210;2022-09-14T16:24:02;4.25;;;1.67;;
40256;SDS011;25977;45.462;9.210;2022-09-14T16:26:30;3.03;;;2.03;;
40256;SDS011;25977;45.462;9.210;2022-09-14T16:28:57;4.53;;;1.67;;
40256;SDS011;25977;45.462;9.210;2022-09-14T16:31:24;2.65;;;1.60;;
40256;SDS011;25977;45.462;9.210;2022-09-14T16:33:53;4.05;;;1.98;;
40256;SDS011;25977;45.462;9.210;2022-09-14T16:36:21;2.95;;;1.58;;
40256;SDS011;25977;45.462;9.210;2022-09-14T16:38:50;2.85;;;1.85;;
40256;SDS011;25977;45.462;9.210;2022-09-14T16:41:16;5.53;;;2.10;;
40256;SDS011;25977;45.462;9.210;2022-09-14T16:43:43;6.55;;;2.65;;
40256;SDS011;25977;45.462;9.210;2022-09-14T16:46:10;5.45;;;2.08;;
40256;SDS011;25977;45.462;9.210;2022-09-14T16:48:43;3.63;;;2.38;;
40256;SDS011;25977;45.462;9.210;2022-09-14T16:51:10;6.22;;;2.70;;
40256;SDS011;25977;45.462;9.210;2022-09-14T16:53:38;3.35;;;2.92;;
40256;SDS011;25977;45.462;9.210;2022-09-14T16:56:06;4.97;;;2.72;;
40256;SDS011;25977;45.462;9.210;2022-09-14T16:58:34;5.03;;;2.22;;
40256;SDS011;25977;45.462;9.210;2022-09-14T17:01:04;10.73;;;3.30;;
40256;SDS011;25977;45.462;9.210;2022-09-14T17:03:37;5.00;;;2.53;;
40256;SDS011;25977;45.462;9.210;2022-09-14T17:06:05;7.03;;;2.63;;
40256;SDS011;25977;45.462;9.210;2022-09-14T17:08:33;5.47;;;2.67;;
40256;SDS011;25977;45.462;9.210;2022-09-14T17:11:00;2.67;;;2.35;;
40256;SDS011;25977;45.462;9.210;2022-09-14T17:13:28;8.48;;;3.00;;
40256;SDS011;25977;45.462;9.210;2022-09-14T17:18:34;6.47;;;3.08;;
40256;SDS011;25977;45.462;9.210;2022-09-14T17:23:54;6.40;;;2.95;;
40256;SDS011;25977;45.462;9.210;2022-09-14T17:26:21;8.75;;;4.00;;
40256;SDS011;25977;45.462;9.210;2022-09-14T17:28:47;6.22;;;2.97;;
40256;SDS011;25977;45.462;9.210;2022-09-14T17:31:19;4.45;;;2.60;;
40256;SDS011;25977;45.462;9.210;2022-09-14T17:33:46;6.10;;;2.45;;
40256;SDS011;25977;45.462;9.210;2022-09-14T17:36:13;6.95;;;2.67;;
40256;SDS011;25977;45.462;9.210;2022-09-14T17:38:40;5.88;;;3.20;;
40256;SDS011;25977;45.462;9.210;2022-09-14T17:41:11;5.40;;;2.25;;
40256;SDS011;25977;45.462;9.210;2022-09-14T17:43:39;7.03;;;3.58;;
40256;SDS011;25977;45.462;9.210;2022-09-14T17:46:06;5.03;;;3.05;;
40256;SDS011;25977;45.462;9.210;2022-09-14T17:48:36;5.45;;;2.90;;
40256;SDS011;25977;45.462;9.210;2022-09-14T17:51:04;8.88;;;3.17;;
40256;SDS011;25977;45.462;9.210;2022-09-14T17:53:35;6.90;;;3.15;;
40256;SDS011;25977;45.462;9.210;2022-09-14T17:56:03;8.20;;;3.33;;